sensor_id;sensor_type;location;lat;lon;timestamp;pressure;altitude;pressure_sealevel;temperature;humidity
11806;BME280;5960;42.602;23.482;2022-11-13T00:01:52;94755.75;;;9.15;85.36
11806;BME280;5960;42.602;23.482;2022-11-13T00:04:19;94753.63;;;9.28;85.03
11806;BME280;5960;42.602;23.482;2022-11-13T00:06:45;94756.31;;;9.37;84.62
11806;BME280;5960;42.602;23.482;2022-11-13T00:09:12;94752.09;;;9.44;84.35
11806;BME280;5960;42.602;23.482;2022-11-13T00:11:39;94747.59;;;9.36;83.44
11806;BME280;5960;42.602;23.482;2022-11-13T00:14:06;94745.72;;;9.28;84.17
11806;BME280;5960;42.602;23.482;2022-11-13T00:16:34;94741.16;;;9.30;84.68
11806;BME280;5960;42.602;23.482;2022-11-13T00:19:00;94746.63;;;9.37;84.26
11806;BME280;5960;42.602;23.482;2022-11-13T00:21:27;94743.78;;;9.30;84.54
11806;BME280;5960;42.602;23.482;2022-11-13T00:23:54;94751.22;;;9.35;84.39
11806;BME280;5960;42.602;23.482;2022-11-13T00:26:23;94746.16;;;9.42;84.08
11806;BME280;5960;42.602;23.482;2022-11-13T00:28:54;94740.63;;;9.45;84.02
11806;BME280;5960;42.602;23.482;2022-11-13T00:31:21;94739.47;;;9.47;83.81
11806;BME280;5960;42.602;23.482;2022-11-13T00:33:50;94735.66;;;9.42;83.81
11806;BME280;5960;42.602;23.482;2022-11-13T00:36:18;94740.53;;;9.37;83.69
11806;BME280;5960;42.602;23.482;2022-11-13T00:38:45;94737.53;;;9.31;84.31
11806;BME280;5960;42.602;23.482;2022-11-13T00:41:12;94738.44;;;9.40;84.21
11806;BME280;5960;42.602;23.482;2022-11-13T00:43:39;94728.28;;;9.45;84.25
11806;BME280;5960;42.602;23.482;2022-11-13T00:46:06;94738.38;;;9.50;83.65
11806;BME280;5960;42.602;23.482;2022-11-13T00:48:34;94730.31;;;9.52;84.07
11806;BME280;5960;42.602;23.482;2022-11-13T00:51:03;94730.25;;;9.43;83.98
11806;BME280;5960;42.602;23.482;2022-11-13T00:53:30;94729.72;;;9.58;83.67
11806;BME280;5960;42.602;23.482;2022-11-13T00:55:56;94727.91;;;9.58;83.50
11806;BME280;5960;42.602;23.482;2022-11-13T00:58:24;94724.00;;;9.62;83.49
11806;BME280;5960;42.602;23.482;2022-11-13T01:00:52;94728.06;;;9.57;83.64
11806;BME280;5960;42.602;23.482;2022-11-13T01:03:18;94734.59;;;9.53;83.56
11806;BME280;5960;42.602;23.482;2022-11-13T01:05:46;94727.75;;;9.60;83.20
11806;BME280;5960;42.602;23.482;2022-11-13T01:08:15;94724.91;;;9.53;83.93
11806;BME280;5960;42.602;23.482;2022-11-13T01:10:43;94731.88;;;9.62;83.04
11806;BME280;5960;42.602;23.482;2022-11-13T01:13:10;94723.69;;;9.47;83.53
11806;BME280;5960;42.602;23.482;2022-11-13T01:15:38;94731.22;;;9.42;84.28
11806;BME280;5960;42.602;23.482;2022-11-13T01:18:05;94730.09;;;9.45;83.88
11806;BME280;5960;42.602;23.482;2022-11-13T01:20:32;94721.69;;;9.41;84.19
11806;BME280;5960;42.602;23.482;2022-11-13T01:22:59;94720.16;;;9.39;84.37
11806;BME280;5960;42.602;23.482;2022-11-13T01:25:27;94721.16;;;9.38;84.06
11806;BME280;5960;42.602;23.482;2022-11-13T01:27:54;94714.22;;;9.37;84.00
11806;BME280;5960;42.602;23.482;2022-11-13T01:30:21;94716.50;;;9.31;84.67
11806;BME280;5960;42.602;23.482;2022-11-13T01:32:48;94716.56;;;9.40;84.30
11806;BME280;5960;42.602;23.482;2022-11-13T01:35:15;94708.75;;;9.30;84.69
11806;BME280;5960;42.602;23.482;2022-11-13T01:37:41;94700.03;;;9.29;84.90
11806;BME280;5960;42.602;23.482;2022-11-13T01:40:10;94698.09;;;9.31;85.14
11806;BME280;5960;42.602;23.482;2022-11-13T01:42:39;94705.38;;;9.38;85.02
11806;BME280;5960;42.602;23.482;2022-11-13T01:48:08;94701.97;;;9.45;84.90
11806;BME280;5960;42.602;23.482;2022-11-13T01:50:35;94694.53;;;9.41;84.84
11806;BME280;5960;42.602;23.482;2022-11-13T01:53:02;94686.94;;;9.56;84.54
11806;BME280;5960;42.602;23.482;2022-11-13T01:55:29;94692.69;;;9.51;84.72
11806;BME280;5960;42.602;23.482;2022-11-13T01:57:57;94691.03;;;9.50;84.34
11806;BME280;5960;42.602;23.482;2022-11-13T02:00:24;94683.81;;;9.52;84.38
11806;BME280;5960;42.602;23.482;2022-11-13T02:02:51;94698.63;;;9.53;84.01
11806;BME280;5960;42.602;23.482;2022-11-13T02:05:18;94703.63;;;9.46;83.66
11806;BME280;5960;42.602;23.482;2022-11-13T02:07:45;94702.34;;;9.51;83.72
11806;BME280;5960;42.602;23.482;2022-11-13T02:10:12;94702.91;;;9.54;83.88
11806;BME280;5960;42.602;23.482;2022-11-13T02:12:42;94708.16;;;9.54;83.40
11806;BME280;5960;42.602;23.482;2022-11-13T02:15:12;94704.31;;;9.48;83.70
11806;BME280;5960;42.602;23.482;2022-11-13T02:17:42;94710.25;;;9.51;83.68
11806;BME280;5960;42.602;23.482;2022-11-13T02:20:10;94706.56;;;9.61;82.97
11806;BME280;5960;42.602;23.482;2022-11-13T02:22:43;94709.28;;;9.52;83.63
11806;BME280;5960;42.602;23.482;2022-11-13T02:25:14;94701.97;;;9.45;83.29
11806;BME280;5960;42.602;23.482;2022-11-13T02:27:43;94698.75;;;9.33;83.85
11806;BME280;5960;42.602;23.482;2022-11-13T02:30:13;94708.16;;;9.36;84.14
11806;BME280;5960;42.602;23.482;2022-11-13T02:32:42;94710.63;;;9.38;84.23
11806;BME280;5960;42.602;23.482;2022-11-13T02:35:10;94703.94;;;9.25;84.51
11806;BME280;5960;42.602;23.482;2022-11-13T02:37:36;94696.75;;;9.27;84.57
11806;BME280;5960;42.602;23.482;2022-11-13T02:40:04;94695.91;;;9.27;84.77
11806;BME280;5960;42.602;23.482;2022-11-13T02:42:32;94695.47;;;9.31;84.76
11806;BME280;5960;42.602;23.482;2022-11-13T02:44:59;94699.28;;;9.37;85.21
11806;BME280;5960;42.602;23.482;2022-11-13T02:47:26;94694.53;;;9.41;84.84
11806;BME280;5960;42.602;23.482;2022-11-13T02:49:53;94705.91;;;9.41;84.05
11806;BME280;5960;42.602;23.482;2022-11-13T02:52:20;94692.00;;;9.49;84.03
11806;BME280;5960;42.602;23.482;2022-11-13T02:54:47;94699.03;;;9.48;84.35
11806;BME280;5960;42.602;23.482;2022-11-13T02:57:13;94696.41;;;9.48;84.33
11806;BME280;5960;42.602;23.482;2022-11-13T02:59:42;94696.59;;;9.47;84.11
11806;BME280;5960;42.602;23.482;2022-11-13T03:02:08;94699.50;;;9.44;84.13
11806;BME280;5960;42.602;23.482;2022-11-13T03:04:35;94705.28;;;9.47;84.21
11806;BME280;5960;42.602;23.482;2022-11-13T03:07:02;94710.13;;;9.52;84.15
11806;BME280;5960;42.602;23.482;2022-11-13T03:09:29;94701.63;;;9.40;84.17
11806;BME280;5960;42.602;23.482;2022-11-13T03:11:56;94704.16;;;9.32;84.82
11806;BME280;5960;42.602;23.482;2022-11-13T03:14:23;94711.25;;;9.31;85.38
11806;BME280;5960;42.602;23.482;2022-11-13T03:16:51;94701.91;;;9.37;84.96
11806;BME280;5960;42.602;23.482;2022-11-13T03:19:17;94710.50;;;9.39;84.59
11806;BME280;5960;42.602;23.482;2022-11-13T03:21:44;94715.19;;;9.36;84.79
11806;BME280;5960;42.602;23.482;2022-11-13T03:24:11;94713.53;;;9.34;85.35
11806;BME280;5960;42.602;23.482;2022-11-13T03:26:38;94711.59;;;9.37;85.15
11806;BME280;5960;42.602;23.482;2022-11-13T03:29:04;94711.84;;;9.25;85.11
11806;BME280;5960;42.602;23.482;2022-11-13T03:31:31;94701.91;;;9.19;85.71
11806;BME280;5960;42.602;23.482;2022-11-13T03:34:00;94710.53;;;9.11;86.24
11806;BME280;5960;42.602;23.482;2022-11-13T03:36:27;94714.16;;;9.10;86.79
11806;BME280;5960;42.602;23.482;2022-11-13T03:38:54;94719.91;;;9.14;86.70
11806;BME280;5960;42.602;23.482;2022-11-13T03:41:21;94712.03;;;9.14;86.27
11806;BME280;5960;42.602;23.482;2022-11-13T03:43:48;94720.34;;;8.91;87.15
11806;BME280;5960;42.602;23.482;2022-11-13T03:46:15;94721.31;;;8.90;87.25
11806;BME280;5960;42.602;23.482;2022-11-13T03:48:42;94719.41;;;8.82;87.70
11806;BME280;5960;42.602;23.482;2022-11-13T03:51:10;94717.72;;;8.91;88.07
11806;BME280;5960;42.602;23.482;2022-11-13T03:53:37;94720.72;;;8.96;87.65
11806;BME280;5960;42.602;23.482;2022-11-13T03:56:04;94714.28;;;8.91;87.70
11806;BME280;5960;42.602;23.482;2022-11-13T03:58:31;94720.78;;;8.86;87.84
11806;BME280;5960;42.602;23.482;2022-11-13T04:00:57;94726.03;;;8.86;88.19
11806;BME280;5960;42.602;23.482;2022-11-13T04:03:24;94720.41;;;8.81;88.38
11806;BME280;5960;42.602;23.482;2022-11-13T04:05:51;94727.84;;;8.86;88.24
11806;BME280;5960;42.602;23.482;2022-11-13T04:08:19;94725.81;;;8.80;88.58
11806;BME280;5960;42.602;23.482;2022-11-13T04:10:46;94724.22;;;8.69;89.21
11806;BME280;5960;42.602;23.482;2022-11-13T04:13:13;94723.06;;;8.71;89.27
11806;BME280;5960;42.602;23.482;2022-11-13T04:15:39;94723.75;;;8.73;89.40
11806;BME280;5960;42.602;23.482;2022-11-13T04:18:06;94720.69;;;8.78;89.03
11806;BME280;5960;42.602;23.482;2022-11-13T04:20:33;94712.66;;;8.80;88.99
11806;BME280;5960;42.602;23.482;2022-11-13T04:23:00;94715.38;;;8.88;89.23
11806;BME280;5960;42.602;23.482;2022-11-13T04:25:33;94721.31;;;8.90;88.65
11806;BME280;5960;42.602;23.482;2022-11-13T04:28:00;94725.31;;;8.94;88.61
11806;BME280;5960;42.602;23.482;2022-11-13T04:30:27;94715.19;;;8.99;88.27
11806;BME280;5960;42.602;23.482;2022-11-13T04:32:54;94720.94;;;8.85;88.84
11806;BME280;5960;42.602;23.482;2022-11-13T04:35:20;94720.78;;;8.86;88.58
11806;BME280;5960;42.602;23.482;2022-11-13T04:37:47;94716.75;;;8.92;88.83
11806;BME280;5960;42.602;23.482;2022-11-13T04:40:14;94727.06;;;9.03;88.40
11806;BME280;5960;42.602;23.482;2022-11-13T04:42:42;94718.50;;;9.01;87.93
11806;BME280;5960;42.602;23.482;2022-11-13T04:45:14;94709.81;;;8.91;88.39
11806;BME280;5960;42.602;23.482;2022-11-13T04:47:41;94712.72;;;8.98;88.69
11806;BME280;5960;42.602;23.482;2022-11-13T04:50:08;94707.75;;;9.13;88.34
11806;BME280;5960;42.602;23.482;2022-11-13T04:52:35;94716.63;;;9.12;87.36
11806;BME280;5960;42.602;23.482;2022-11-13T04:55:02;94720.00;;;9.04;87.25
11806;BME280;5960;42.602;23.482;2022-11-13T04:57:29;94724.66;;;9.10;87.86
11806;BME280;5960;42.602;23.482;2022-11-13T04:59:57;94717.75;;;9.09;87.50
11806;BME280;5960;42.602;23.482;2022-11-13T05:02:24;94718.09;;;8.96;88.06
11806;BME280;5960;42.602;23.482;2022-11-13T05:04:51;94717.66;;;9.01;88.03
11806;BME280;5960;42.602;23.482;2022-11-13T05:07:18;94710.84;;;9.08;87.59
11806;BME280;5960;42.602;23.482;2022-11-13T05:09:45;94718.09;;;8.96;87.22
11806;BME280;5960;42.602;23.482;2022-11-13T05:12:11;94718.41;;;8.93;87.60
11806;BME280;5960;42.602;23.482;2022-11-13T05:14:39;94713.81;;;8.95;87.78
11806;BME280;5960;42.602;23.482;2022-11-13T05:17:09;94721.13;;;9.01;87.57
11806;BME280;5960;42.602;23.482;2022-11-13T05:19:37;94722.69;;;8.94;87.62
11806;BME280;5960;42.602;23.482;2022-11-13T05:22:04;94725.25;;;9.04;88.11
11806;BME280;5960;42.602;23.482;2022-11-13T05:24:31;94725.53;;;9.01;87.04
11806;BME280;5960;42.602;23.482;2022-11-13T05:26:57;94728.44;;;9.08;87.56
11806;BME280;5960;42.602;23.482;2022-11-13T05:29:24;94717.47;;;9.12;86.81
11806;BME280;5960;42.602;23.482;2022-11-13T05:31:51;94715.06;;;9.19;86.55
11806;BME280;5960;42.602;23.482;2022-11-13T05:34:19;94718.13;;;9.14;85.70
11806;BME280;5960;42.602;23.482;2022-11-13T05:36:46;94727.91;;;9.22;85.15
11806;BME280;5960;42.602;23.482;2022-11-13T05:39:13;94732.84;;;9.07;85.32
11806;BME280;5960;42.602;23.482;2022-11-13T05:41:39;94729.47;;;8.97;85.69
11806;BME280;5960;42.602;23.482;2022-11-13T05:44:07;94729.75;;;8.94;85.62
11806;BME280;5960;42.602;23.482;2022-11-13T05:46:33;94736.78;;;8.93;85.97
11806;BME280;5960;42.602;23.482;2022-11-13T05:49:01;94743.22;;;9.09;85.79
11806;BME280;5960;42.602;23.482;2022-11-13T05:51:31;94733.59;;;8.99;85.31
11806;BME280;5960;42.602;23.482;2022-11-13T05:53:58;94738.69;;;9.01;85.69
11806;BME280;5960;42.602;23.482;2022-11-13T05:56:27;94736.53;;;9.14;85.27
11806;BME280;5960;42.602;23.482;2022-11-13T05:58:55;94738.00;;;8.99;85.65
11806;BME280;5960;42.602;23.482;2022-11-13T06:01:23;94740.19;;;9.03;85.36
11806;BME280;5960;42.602;23.482;2022-11-13T06:03:51;94744.66;;;9.21;85.39
11806;BME280;5960;42.602;23.482;2022-11-13T06:06:19;94745.97;;;9.07;84.84
11806;BME280;5960;42.602;23.482;2022-11-13T06:08:48;94754.09;;;8.96;84.98
11806;BME280;5960;42.602;23.482;2022-11-13T06:11:17;94762.66;;;8.88;85.25
11806;BME280;5960;42.602;23.482;2022-11-13T06:13:45;94751.88;;;8.91;85.57
11806;BME280;5960;42.602;23.482;2022-11-13T06:16:13;94756.09;;;8.84;85.74
11806;BME280;5960;42.602;23.482;2022-11-13T06:18:42;94750.81;;;8.84;85.87
11806;BME280;5960;42.602;23.482;2022-11-13T06:21:12;94752.94;;;8.98;85.94
11806;BME280;5960;42.602;23.482;2022-11-13T06:23:40;94753.94;;;8.97;84.73
11806;BME280;5960;42.602;23.482;2022-11-13T06:26:10;94745.13;;;8.88;84.33
11806;BME280;5960;42.602;23.482;2022-11-13T06:28:37;94744.16;;;8.90;84.84
11806;BME280;5960;42.602;23.482;2022-11-13T06:31:05;94748.56;;;8.89;84.58
11806;BME280;5960;42.602;23.482;2022-11-13T06:33:32;94754.09;;;8.96;84.91
11806;BME280;5960;42.602;23.482;2022-11-13T06:36:00;94753.13;;;9.15;84.09
11806;BME280;5960;42.602;23.482;2022-11-13T06:38:29;94759.34;;;9.14;83.89
11806;BME280;5960;42.602;23.482;2022-11-13T06:40:56;94751.19;;;9.17;83.71
11806;BME280;5960;42.602;23.482;2022-11-13T06:43:25;94747.28;;;9.21;83.65
11806;BME280;5960;42.602;23.482;2022-11-13T06:45:52;94759.47;;;9.22;83.09
11806;BME280;5960;42.602;23.482;2022-11-13T06:48:19;94739.00;;;9.16;82.94
11806;BME280;5960;42.602;23.482;2022-11-13T06:50:45;94741.13;;;9.12;83.53
11806;BME280;5960;42.602;23.482;2022-11-13T06:53:13;94749.63;;;9.24;82.91
11806;BME280;5960;42.602;23.482;2022-11-13T06:55:42;94743.59;;;9.14;83.31
11806;BME280;5960;42.602;23.482;2022-11-13T06:58:09;94745.25;;;9.15;83.74
11806;BME280;5960;42.602;23.482;2022-11-13T07:00:38;94744.28;;;9.34;83.34
11806;BME280;5960;42.602;23.482;2022-11-13T07:03:05;94741.28;;;9.47;82.81
11806;BME280;5960;42.602;23.482;2022-11-13T07:05:35;94746.31;;;9.58;81.54
11806;BME280;5960;42.602;23.482;2022-11-13T07:08:02;94742.50;;;9.53;81.13
11806;BME280;5960;42.602;23.482;2022-11-13T07:10:28;94741.69;;;9.52;81.61
11806;BME280;5960;42.602;23.482;2022-11-13T07:12:57;94733.72;;;9.62;81.06
11806;BME280;5960;42.602;23.482;2022-11-13T07:15:24;94740.00;;;9.69;80.50
11806;BME280;5960;42.602;23.482;2022-11-13T07:17:52;94745.03;;;9.81;79.44
11806;BME280;5960;42.602;23.482;2022-11-13T07:20:19;94741.94;;;9.67;79.61
11806;BME280;5960;42.602;23.482;2022-11-13T07:22:46;94745.16;;;9.79;79.40
11806;BME280;5960;42.602;23.482;2022-11-13T07:25:12;94745.50;;;9.76;79.83
11806;BME280;5960;42.602;23.482;2022-11-13T07:27:43;94741.63;;;9.88;79.81
11806;BME280;5960;42.602;23.482;2022-11-13T07:30:11;94743.66;;;9.94;79.69
11806;BME280;5960;42.602;23.482;2022-11-13T07:32:38;94755.47;;;9.72;78.25
11806;BME280;5960;42.602;23.482;2022-11-13T07:35:07;94750.78;;;9.76;78.69
11806;BME280;5960;42.602;23.482;2022-11-13T07:37:34;94755.69;;;9.79;79.47
11806;BME280;5960;42.602;23.482;2022-11-13T07:40:01;94750.81;;;9.84;79.37
11806;BME280;5960;42.602;23.482;2022-11-13T07:42:28;94746.44;;;9.93;79.87
11806;BME280;5960;42.602;23.482;2022-11-13T07:44:54;94748.94;;;9.94;79.61
11806;BME280;5960;42.602;23.482;2022-11-13T07:47:21;94751.59;;;10.03;78.76
11806;BME280;5960;42.602;23.482;2022-11-13T07:49:48;94756.47;;;9.89;79.20
11806;BME280;5960;42.602;23.482;2022-11-13T07:52:16;94763.28;;;10.00;79.53
11806;BME280;5960;42.602;23.482;2022-11-13T07:54:43;94765.44;;;10.05;78.79
11806;BME280;5960;42.602;23.482;2022-11-13T07:57:10;94766.69;;;9.92;79.59
11806;BME280;5960;42.602;23.482;2022-11-13T07:59:36;94764.22;;;9.73;79.85
11806;BME280;5960;42.602;23.482;2022-11-13T08:02:03;94763.38;;;9.72;80.66
11806;BME280;5960;42.602;23.482;2022-11-13T08:04:30;94764.91;;;9.75;81.09
11806;BME280;5960;42.602;23.482;2022-11-13T08:06:57;94767.59;;;9.83;80.07
11806;BME280;5960;42.602;23.482;2022-11-13T08:09:25;94770.69;;;9.78;80.49
11806;BME280;5960;42.602;23.482;2022-11-13T08:11:52;94768.22;;;9.77;80.49
11806;BME280;5960;42.602;23.482;2022-11-13T08:14:19;94759.94;;;9.72;80.28
11806;BME280;5960;42.602;23.482;2022-11-13T08:16:45;94767.88;;;9.80;80.19
11806;BME280;5960;42.602;23.482;2022-11-13T08:19:12;94766.22;;;9.79;79.93
11806;BME280;5960;42.602;23.482;2022-11-13T08:21:39;94759.63;;;9.75;80.47
11806;BME280;5960;42.602;23.482;2022-11-13T08:24:06;94760.16;;;9.78;80.27
11806;BME280;5960;42.602;23.482;2022-11-13T08:26:36;94755.78;;;9.69;80.45
11806;BME280;5960;42.602;23.482;2022-11-13T08:29:02;94755.28;;;9.66;81.15
11806;BME280;5960;42.602;23.482;2022-11-13T08:31:29;94768.81;;;9.71;80.62
11806;BME280;5960;42.602;23.482;2022-11-13T08:33:56;94766.19;;;9.71;80.62
11806;BME280;5960;42.602;23.482;2022-11-13T08:36:23;94766.94;;;9.63;80.93
11806;BME280;5960;42.602;23.482;2022-11-13T08:38:49;94763.69;;;9.69;81.36
11806;BME280;5960;42.602;23.482;2022-11-13T08:41:16;94772.41;;;9.70;80.77
11806;BME280;5960;42.602;23.482;2022-11-13T08:43:44;94774.88;;;9.71;80.67
11806;BME280;5960;42.602;23.482;2022-11-13T08:46:11;94773.31;;;9.60;80.75
11806;BME280;5960;42.602;23.482;2022-11-13T08:48:38;94772.84;;;9.47;80.56
11806;BME280;5960;42.602;23.482;2022-11-13T08:51:05;94777.34;;;9.37;80.91
11806;BME280;5960;42.602;23.482;2022-11-13T08:53:31;94765.09;;;9.27;81.89
11806;BME280;5960;42.602;23.482;2022-11-13T08:55:59;94771.13;;;9.38;82.38
11806;BME280;5960;42.602;23.482;2022-11-13T08:58:26;94774.97;;;9.43;80.81
11806;BME280;5960;42.602;23.482;2022-11-13T09:00:58;94773.59;;;9.39;80.98
11806;BME280;5960;42.602;23.482;2022-11-13T09:03:25;94773.50;;;9.31;81.26
11806;BME280;5960;42.602;23.482;2022-11-13T09:05:52;94776.06;;;9.41;81.87
11806;BME280;5960;42.602;23.482;2022-11-13T09:08:18;94782.16;;;9.59;81.26
11806;BME280;5960;42.602;23.482;2022-11-13T09:10:45;94777.06;;;9.58;80.66
11806;BME280;5960;42.602;23.482;2022-11-13T09:13:12;94778.06;;;9.57;80.85
11806;BME280;5960;42.602;23.482;2022-11-13T09:15:38;94772.41;;;9.70;81.17
11806;BME280;5960;42.602;23.482;2022-11-13T09:18:08;94772.63;;;9.76;79.82
11806;BME280;5960;42.602;23.482;2022-11-13T09:20:35;94775.03;;;9.70;79.48
11806;BME280;5960;42.602;23.482;2022-11-13T09:23:04;94774.28;;;9.77;80.13
11806;BME280;5960;42.602;23.482;2022-11-13T09:25:34;94774.97;;;9.79;79.03
11806;BME280;5960;42.602;23.482;2022-11-13T09:28:02;94770.97;;;9.93;79.05
11806;BME280;5960;42.602;23.482;2022-11-13T09:30:29;94763.06;;;9.93;78.04
11806;BME280;5960;42.602;23.482;2022-11-13T09:32:59;94770.75;;;9.87;78.04
11806;BME280;5960;42.602;23.482;2022-11-13T09:35:27;94765.41;;;9.97;77.58
11806;BME280;5960;42.602;23.482;2022-11-13T09:38:01;94757.72;;;9.85;77.37
11806;BME280;5960;42.602;23.482;2022-11-13T09:40:31;94759.09;;;9.89;77.57
11806;BME280;5960;42.602;23.482;2022-11-13T09:43:00;94754.22;;;9.76;77.56
11806;BME280;5960;42.602;23.482;2022-11-13T09:45:29;94750.72;;;9.94;78.17
11806;BME280;5960;42.602;23.482;2022-11-13T09:48:00;94745.31;;;9.96;77.85
11806;BME280;5960;42.602;23.482;2022-11-13T09:50:34;94739.97;;;10.05;78.31
11806;BME280;5960;42.602;23.482;2022-11-13T09:53:02;94749.66;;;10.05;76.28
11806;BME280;5960;42.602;23.482;2022-11-13T09:55:33;94745.31;;;9.96;77.07
11806;BME280;5960;42.602;23.482;2022-11-13T09:58:08;94745.63;;;9.92;77.30
11806;BME280;5960;42.602;23.482;2022-11-13T10:00:37;94738.97;;;10.06;78.20
11806;BME280;5960;42.602;23.482;2022-11-13T10:03:17;94727.06;;;10.20;76.15
11806;BME280;5960;42.602;23.482;2022-11-13T10:05:55;94732.22;;;10.30;76.30
11806;BME280;5960;42.602;23.482;2022-11-13T10:08:27;94723.63;;;10.46;75.59
11806;BME280;5960;42.602;23.482;2022-11-13T10:11:03;94728.00;;;10.64;74.78
11806;BME280;5960;42.602;23.482;2022-11-13T10:13:38;94725.84;;;10.67;74.63
11806;BME280;5960;42.602;23.482;2022-11-13T10:16:15;94724.06;;;10.68;74.82
11806;BME280;5960;42.602;23.482;2022-11-13T10:18:47;94724.00;;;10.60;74.27
11806;BME280;5960;42.602;23.482;2022-11-13T10:21:26;94721.38;;;10.60;74.29
11806;BME280;5960;42.602;23.482;2022-11-13T10:23:55;94716.22;;;10.23;74.71
11806;BME280;5960;42.602;23.482;2022-11-13T10:26:24;94721.81;;;10.20;75.70
11806;BME280;5960;42.602;23.482;2022-11-13T10:28:59;94713.25;;;10.27;75.25
11806;BME280;5960;42.602;23.482;2022-11-13T10:31:26;94719.00;;;10.22;74.83
11806;BME280;5960;42.602;23.482;2022-11-13T10:33:53;94709.63;;;10.19;75.63
11806;BME280;5960;42.602;23.482;2022-11-13T10:36:30;94715.56;;;10.21;75.43
11806;BME280;5960;42.602;23.482;2022-11-13T10:39:03;94716.09;;;10.07;76.31
11806;BME280;5960;42.602;23.482;2022-11-13T10:41:31;94705.94;;;10.12;76.12
11806;BME280;5960;42.602;23.482;2022-11-13T10:44:17;94708.97;;;10.26;75.31
11806;BME280;5960;42.602;23.482;2022-11-13T10:46:45;94704.44;;;10.36;75.45
11806;BME280;5960;42.602;23.482;2022-11-13T10:49:17;94705.41;;;10.35;75.59
11806;BME280;5960;42.602;23.482;2022-11-13T10:51:53;94699.56;;;10.41;74.75
11806;BME280;5960;42.602;23.482;2022-11-13T10:54:23;94703.44;;;10.37;75.65
11806;BME280;5960;42.602;23.482;2022-11-13T10:56:57;94700.91;;;10.53;75.51
11806;BME280;5960;42.602;23.482;2022-11-13T10:59:26;94694.66;;;10.46;75.01
11806;BME280;5960;42.602;23.482;2022-11-13T11:02:13;94695.63;;;10.45;75.74
11806;BME280;5960;42.602;23.482;2022-11-13T11:04:41;94697.00;;;10.58;75.52
11806;BME280;5960;42.602;23.482;2022-11-13T11:07:13;94701.03;;;10.78;75.24
11806;BME280;5960;42.602;23.482;2022-11-13T11:09:40;94695.16;;;11.01;74.72
11806;BME280;5960;42.602;23.482;2022-11-13T11:12:11;94695.38;;;11.33;74.52
11806;BME280;5960;42.602;23.482;2022-11-13T11:15:02;94695.09;;;11.94;73.91
11806;BME280;5960;42.602;23.482;2022-11-13T11:17:37;94690.50;;;12.60;70.31
11806;BME280;5960;42.602;23.482;2022-11-13T11:20:14;94686.50;;;12.73;68.47
11806;BME280;5960;42.602;23.482;2022-11-13T11:22:48;94688.50;;;12.71;68.51
11806;BME280;5960;42.602;23.482;2022-11-13T11:25:21;94685.41;;;12.59;68.05
11806;BME280;5960;42.602;23.482;2022-11-13T11:27:55;94685.28;;;12.44;68.04
11806;BME280;5960;42.602;23.482;2022-11-13T11:30:33;94680.72;;;12.29;68.24
11806;BME280;5960;42.602;23.482;2022-11-13T11:33:08;94674.81;;;12.02;67.87
11806;BME280;5960;42.602;23.482;2022-11-13T11:35:44;94677.59;;;12.01;68.00
11806;BME280;5960;42.602;23.482;2022-11-13T11:38:15;94686.66;;;11.90;68.41
11806;BME280;5960;42.602;23.482;2022-11-13T11:40:48;94682.22;;;11.57;69.87
11806;BME280;5960;42.602;23.482;2022-11-13T11:43:20;94682.38;;;11.31;71.06
11806;BME280;5960;42.602;23.482;2022-11-13T11:45:49;94681.88;;;11.36;70.70
11806;BME280;5960;42.602;23.482;2022-11-13T11:48:18;94676.72;;;11.18;71.19
11806;BME280;5960;42.602;23.482;2022-11-13T11:50:50;94674.25;;;11.16;71.73
11806;BME280;5960;42.602;23.482;2022-11-13T11:53:29;94672.41;;;11.00;72.11
11806;BME280;5960;42.602;23.482;2022-11-13T11:56:11;94666.50;;;11.06;71.17
11806;BME280;5960;42.602;23.482;2022-11-13T11:59:00;94658.97;;;11.36;71.60
11806;BME280;5960;42.602;23.482;2022-11-13T12:01:44;94668.84;;;12.17;68.60
11806;BME280;5960;42.602;23.482;2022-11-13T12:04:29;94670.75;;;12.48;67.05
11806;BME280;5960;42.602;23.482;2022-11-13T12:07:09;94661.13;;;14.26;61.84
11806;BME280;5960;42.602;23.482;2022-11-13T12:09:45;94657.94;;;16.57;56.90
11806;BME280;5960;42.602;23.482;2022-11-13T12:12:21;94656.03;;;19.28;50.64
11806;BME280;5960;42.602;23.482;2022-11-13T12:15:00;94657.56;;;20.75;42.92
11806;BME280;5960;42.602;23.482;2022-11-13T12:17:40;94646.66;;;20.33;42.74
11806;BME280;5960;42.602;23.482;2022-11-13T12:20:19;94647.22;;;19.91;43.85
11806;BME280;5960;42.602;23.482;2022-11-13T12:22:53;94651.09;;;20.21;42.92
11806;BME280;5960;42.602;23.482;2022-11-13T12:25:26;94655.34;;;21.28;39.13
11806;BME280;5960;42.602;23.482;2022-11-13T12:27:58;94645.00;;;20.13;40.68
11806;BME280;5960;42.602;23.482;2022-11-13T12:30:38;94648.69;;;20.56;42.02
11806;BME280;5960;42.602;23.482;2022-11-13T12:33:17;94644.97;;;22.88;37.21
11806;BME280;5960;42.602;23.482;2022-11-13T12:35:49;94647.47;;;23.19;35.37
11806;BME280;5960;42.602;23.482;2022-11-13T12:38:27;94642.47;;;23.51;35.68
11806;BME280;5960;42.602;23.482;2022-11-13T12:41:03;94638.25;;;24.36;34.29
11806;BME280;5960;42.602;23.482;2022-11-13T12:43:46;94632.91;;;25.64;32.42
11806;BME280;5960;42.602;23.482;2022-11-13T12:46:16;94634.59;;;27.26;30.81
11806;BME280;5960;42.602;23.482;2022-11-13T12:48:44;94635.09;;;28.23;28.74
11806;BME280;5960;42.602;23.482;2022-11-13T12:51:13;94638.50;;;28.96;27.63
11806;BME280;5960;42.602;23.482;2022-11-13T12:53:47;94640.91;;;29.13;27.82
11806;BME280;5960;42.602;23.482;2022-11-13T12:56:29;94637.00;;;29.45;26.90
11806;BME280;5960;42.602;23.482;2022-11-13T12:58:58;94649.13;;;30.43;26.97
11806;BME280;5960;42.602;23.482;2022-11-13T13:01:27;94646.97;;;28.63;27.00
11806;BME280;5960;42.602;23.482;2022-11-13T13:04:13;94636.25;;;24.65;32.02
11806;BME280;5960;42.602;23.482;2022-11-13T13:06:51;94642.66;;;24.42;32.30
11806;BME280;5960;42.602;23.482;2022-11-13T13:09:34;94632.63;;;24.03;33.43
11806;BME280;5960;42.602;23.482;2022-11-13T13:12:13;94634.19;;;24.16;33.29
11806;BME280;5960;42.602;23.482;2022-11-13T13:14:59;94635.72;;;24.12;33.68
11806;BME280;5960;42.602;23.482;2022-11-13T13:17:28;94630.72;;;24.72;32.38
11806;BME280;5960;42.602;23.482;2022-11-13T13:19:57;94634.97;;;25.57;31.46
11806;BME280;5960;42.602;23.482;2022-11-13T13:22:26;94638.53;;;26.60;30.41